sensor_id;sensor_type;location;lat;lon;timestamp;P1;durP1;ratioP1;P2;durP2;ratioP2
4272;SDS011;63887;53.656;9.810;2022-11-12T00:00:44;35.63;;;23.87;;
4272;SDS011;63887;53.656;9.810;2022-11-12T00:03:10;35.40;;;23.50;;
4272;SDS011;63887;53.656;9.810;2022-11-12T00:05:37;29.37;;;22.80;;
4272;SDS011;63887;53.656;9.810;2022-11-12T00:08:03;31.03;;;23.13;;
4272;SDS011;63887;53.656;9.810;2022-11-12T00:10:31;36.90;;;25.90;;
4272;SDS011;63887;53.656;9.810;2022-11-12T00:12:58;39.67;;;22.50;;
4272;SDS011;63887;53.656;9.810;2022-11-12T00:15:25;36.27;;;24.30;;
4272;SDS011;63887;53.656;9.810;2022-11-12T00:17:51;39.30;;;24.40;;
4272;SDS011;63887;53.656;9.810;2022-11-12T00:20:18;42.93;;;25.30;;
4272;SDS011;63887;53.656;9.810;2022-11-12T00:22:45;46.73;;;26.47;;
4272;SDS011;63887;53.656;9.810;2022-11-12T00:25:12;41.43;;;24.83;;
4272;SDS011;63887;53.656;9.810;2022-11-12T00:27:40;36.93;;;24.43;;
4272;SDS011;63887;53.656;9.810;2022-11-12T00:30:06;38.87;;;25.27;;
4272;SDS011;63887;53.656;9.810;2022-11-12T00:32:34;38.87;;;25.37;;
4272;SDS011;63887;53.656;9.810;2022-11-12T00:35:01;43.77;;;24.77;;
4272;SDS011;63887;53.656;9.810;2022-11-12T00:37:27;39.47;;;24.70;;
4272;SDS011;63887;53.656;9.810;2022-11-12T00:39:54;40.03;;;24.57;;
4272;SDS011;63887;53.656;9.810;2022-11-12T00:42:20;33.47;;;24.20;;
4272;SDS011;63887;53.656;9.810;2022-11-12T00:44:48;34.90;;;23.80;;
4272;SDS011;63887;53.656;9.810;2022-11-12T00:47:14;35.50;;;24.07;;
4272;SDS011;63887;53.656;9.810;2022-11-12T00:49:41;35.10;;;22.93;;
4272;SDS011;63887;53.656;9.810;2022-11-12T00:52:08;42.00;;;24.13;;
4272;SDS011;63887;53.656;9.810;2022-11-12T00:54:34;37.47;;;23.27;;
4272;SDS011;63887;53.656;9.810;2022-11-12T00:57:00;31.13;;;22.60;;
4272;SDS011;63887;53.656;9.810;2022-11-12T00:59:27;32.87;;;22.03;;
4272;SDS011;63887;53.656;9.810;2022-11-12T01:01:55;31.70;;;22.00;;
4272;SDS011;63887;53.656;9.810;2022-11-12T01:04:21;32.90;;;22.00;;
4272;SDS011;63887;53.656;9.810;2022-11-12T01:06:47;40.30;;;23.67;;
4272;SDS011;63887;53.656;9.810;2022-11-12T01:09:14;36.13;;;21.87;;
4272;SDS011;63887;53.656;9.810;2022-11-12T01:11:40;31.67;;;22.37;;
4272;SDS011;63887;53.656;9.810;2022-11-12T01:14:07;31.93;;;21.30;;
4272;SDS011;63887;53.656;9.810;2022-11-12T01:16:39;32.90;;;21.50;;
4272;SDS011;63887;53.656;9.810;2022-11-12T01:19:09;28.87;;;20.40;;
4272;SDS011;63887;53.656;9.810;2022-11-12T01:21:38;35.57;;;20.73;;
4272;SDS011;63887;53.656;9.810;2022-11-12T01:24:07;31.03;;;19.00;;
4272;SDS011;63887;53.656;9.810;2022-11-12T01:26:34;30.07;;;19.37;;
4272;SDS011;63887;53.656;9.810;2022-11-12T01:29:00;34.00;;;21.77;;
4272;SDS011;63887;53.656;9.810;2022-11-12T01:31:28;29.23;;;20.93;;
4272;SDS011;63887;53.656;9.810;2022-11-12T01:33:56;28.70;;;19.63;;
4272;SDS011;63887;53.656;9.810;2022-11-12T01:36:26;35.20;;;20.30;;
4272;SDS011;63887;53.656;9.810;2022-11-12T01:38:57;31.27;;;19.53;;
4272;SDS011;63887;53.656;9.810;2022-11-12T01:41:24;25.60;;;18.53;;
4272;SDS011;63887;53.656;9.810;2022-11-12T01:44:11;37.00;;;19.70;;
4272;SDS011;63887;53.656;9.810;2022-11-12T01:46:43;27.83;;;17.90;;
4272;SDS011;63887;53.656;9.810;2022-11-12T01:49:20;25.60;;;18.90;;
4272;SDS011;63887;53.656;9.810;2022-11-12T01:51:55;26.13;;;19.70;;
4272;SDS011;63887;53.656;9.810;2022-11-12T01:54:27;26.37;;;20.00;;
4272;SDS011;63887;53.656;9.810;2022-11-12T01:56:54;26.67;;;18.77;;
4272;SDS011;63887;53.656;9.810;2022-11-12T01:59:24;33.37;;;19.73;;
4272;SDS011;63887;53.656;9.810;2022-11-12T02:01:58;28.13;;;20.00;;
4272;SDS011;63887;53.656;9.810;2022-11-12T02:04:25;23.87;;;20.23;;
4272;SDS011;63887;53.656;9.810;2022-11-12T02:06:53;26.40;;;19.37;;
4272;SDS011;63887;53.656;9.810;2022-11-12T02:09:23;19.60;;;17.53;;
4272;SDS011;63887;53.656;9.810;2022-11-12T02:11:50;27.00;;;19.03;;
4272;SDS011;63887;53.656;9.810;2022-11-12T02:14:17;23.40;;;19.43;;
4272;SDS011;63887;53.656;9.810;2022-11-12T02:16:43;27.13;;;19.13;;
4272;SDS011;63887;53.656;9.810;2022-11-12T02:19:12;27.83;;;18.40;;
4272;SDS011;63887;53.656;9.810;2022-11-12T02:21:40;31.27;;;20.80;;
4272;SDS011;63887;53.656;9.810;2022-11-12T02:27:00;28.77;;;20.47;;
4272;SDS011;63887;53.656;9.810;2022-11-12T02:29:27;28.37;;;19.70;;
4272;SDS011;63887;53.656;9.810;2022-11-12T02:31:53;28.43;;;20.33;;
4272;SDS011;63887;53.656;9.810;2022-11-12T02:34:20;25.97;;;19.67;;
4272;SDS011;63887;53.656;9.810;2022-11-12T02:36:48;25.97;;;19.97;;
4272;SDS011;63887;53.656;9.810;2022-11-12T02:39:14;32.63;;;19.00;;
4272;SDS011;63887;53.656;9.810;2022-11-12T02:41:41;27.53;;;19.37;;
4272;SDS011;63887;53.656;9.810;2022-11-12T02:44:07;33.10;;;20.20;;
4272;SDS011;63887;53.656;9.810;2022-11-12T02:46:33;24.60;;;18.37;;
4272;SDS011;63887;53.656;9.810;2022-11-12T02:49:00;26.97;;;20.70;;
4272;SDS011;63887;53.656;9.810;2022-11-12T02:51:26;30.00;;;20.47;;
4272;SDS011;63887;53.656;9.810;2022-11-12T02:53:54;34.90;;;19.77;;
4272;SDS011;63887;53.656;9.810;2022-11-12T02:56:21;32.50;;;22.60;;
4272;SDS011;63887;53.656;9.810;2022-11-12T02:58:47;23.30;;;19.30;;
4272;SDS011;63887;53.656;9.810;2022-11-12T03:01:14;29.50;;;22.30;;
4272;SDS011;63887;53.656;9.810;2022-11-12T03:03:40;23.57;;;20.67;;
4272;SDS011;63887;53.656;9.810;2022-11-12T03:06:06;32.40;;;22.10;;
4272;SDS011;63887;53.656;9.810;2022-11-12T03:08:33;33.90;;;20.80;;
4272;SDS011;63887;53.656;9.810;2022-11-12T03:11:05;27.27;;;21.50;;
4272;SDS011;63887;53.656;9.810;2022-11-12T03:13:33;26.97;;;20.43;;
4272;SDS011;63887;53.656;9.810;2022-11-12T03:16:00;29.90;;;20.80;;
4272;SDS011;63887;53.656;9.810;2022-11-12T03:18:26;33.27;;;21.30;;
4272;SDS011;63887;53.656;9.810;2022-11-12T03:20:53;23.93;;;20.70;;
4272;SDS011;63887;53.656;9.810;2022-11-12T03:23:19;27.43;;;22.30;;
4272;SDS011;63887;53.656;9.810;2022-11-12T03:25:46;31.13;;;21.20;;
4272;SDS011;63887;53.656;9.810;2022-11-12T03:28:14;30.13;;;23.00;;
4272;SDS011;63887;53.656;9.810;2022-11-12T03:30:41;36.40;;;23.00;;
4272;SDS011;63887;53.656;9.810;2022-11-12T03:33:09;27.00;;;20.97;;
4272;SDS011;63887;53.656;9.810;2022-11-12T03:35:36;28.20;;;21.80;;
4272;SDS011;63887;53.656;9.810;2022-11-12T03:38:03;27.10;;;22.43;;
4272;SDS011;63887;53.656;9.810;2022-11-12T03:40:31;28.80;;;22.13;;
4272;SDS011;63887;53.656;9.810;2022-11-12T03:42:58;32.07;;;23.87;;
4272;SDS011;63887;53.656;9.810;2022-11-12T03:45:26;35.73;;;23.60;;
4272;SDS011;63887;53.656;9.810;2022-11-12T03:47:54;32.07;;;23.47;;
4272;SDS011;63887;53.656;9.810;2022-11-12T03:50:22;37.40;;;23.47;;
4272;SDS011;63887;53.656;9.810;2022-11-12T03:52:51;31.80;;;23.63;;
4272;SDS011;63887;53.656;9.810;2022-11-12T03:55:19;33.73;;;24.23;;
4272;SDS011;63887;53.656;9.810;2022-11-12T03:57:48;30.10;;;23.67;;
4272;SDS011;63887;53.656;9.810;2022-11-12T04:00:15;41.03;;;25.40;;
4272;SDS011;63887;53.656;9.810;2022-11-12T04:02:44;41.67;;;23.03;;
4272;SDS011;63887;53.656;9.810;2022-11-12T04:05:10;27.47;;;22.80;;
4272;SDS011;63887;53.656;9.810;2022-11-12T04:07:56;36.73;;;24.73;;
4272;SDS011;63887;53.656;9.810;2022-11-12T04:10:41;29.87;;;22.00;;
4272;SDS011;63887;53.656;9.810;2022-11-12T04:13:08;38.67;;;24.47;;
4272;SDS011;63887;53.656;9.810;2022-11-12T04:15:51;31.93;;;23.97;;
4272;SDS011;63887;53.656;9.810;2022-11-12T04:18:33;36.83;;;23.63;;
4272;SDS011;63887;53.656;9.810;2022-11-12T04:21:17;50.60;;;23.30;;
4272;SDS011;63887;53.656;9.810;2022-11-12T04:24:01;33.67;;;22.53;;
4272;SDS011;63887;53.656;9.810;2022-11-12T04:26:27;34.20;;;23.93;;
4272;SDS011;63887;53.656;9.810;2022-11-12T04:28:53;35.53;;;24.87;;
4272;SDS011;63887;53.656;9.810;2022-11-12T04:31:37;35.17;;;23.50;;
4272;SDS011;63887;53.656;9.810;2022-11-12T04:34:05;37.03;;;23.67;;
4272;SDS011;63887;53.656;9.810;2022-11-12T04:36:45;32.90;;;23.27;;
4272;SDS011;63887;53.656;9.810;2022-11-12T04:39:12;37.30;;;25.60;;
4272;SDS011;63887;53.656;9.810;2022-11-12T04:41:38;40.40;;;24.60;;
4272;SDS011;63887;53.656;9.810;2022-11-12T04:44:22;32.57;;;24.13;;
4272;SDS011;63887;53.656;9.810;2022-11-12T04:47:06;44.10;;;24.20;;
4272;SDS011;63887;53.656;9.810;2022-11-12T04:49:34;47.43;;;26.00;;
4272;SDS011;63887;53.656;9.810;2022-11-12T04:52:00;34.67;;;24.90;;
4272;SDS011;63887;53.656;9.810;2022-11-12T04:54:32;27.47;;;22.17;;
4272;SDS011;63887;53.656;9.810;2022-11-12T04:56:59;52.63;;;28.53;;
4272;SDS011;63887;53.656;9.810;2022-11-12T04:59:25;35.60;;;24.37;;
4272;SDS011;63887;53.656;9.810;2022-11-12T05:01:52;32.77;;;23.93;;
4272;SDS011;63887;53.656;9.810;2022-11-12T05:04:18;33.23;;;24.70;;
4272;SDS011;63887;53.656;9.810;2022-11-12T05:06:47;38.63;;;24.50;;
4272;SDS011;63887;53.656;9.810;2022-11-12T05:09:16;37.47;;;24.83;;
4272;SDS011;63887;53.656;9.810;2022-11-12T05:11:43;34.13;;;22.80;;
4272;SDS011;63887;53.656;9.810;2022-11-12T05:14:10;30.00;;;24.00;;
4272;SDS011;63887;53.656;9.810;2022-11-12T05:16:36;36.10;;;23.67;;
4272;SDS011;63887;53.656;9.810;2022-11-12T05:19:03;34.63;;;23.57;;
4272;SDS011;63887;53.656;9.810;2022-11-12T05:21:29;46.27;;;26.70;;
4272;SDS011;63887;53.656;9.810;2022-11-12T05:24:15;34.93;;;24.13;;
4272;SDS011;63887;53.656;9.810;2022-11-12T05:26:42;36.70;;;25.70;;
4272;SDS011;63887;53.656;9.810;2022-11-12T05:29:08;33.30;;;24.80;;
4272;SDS011;63887;53.656;9.810;2022-11-12T05:31:35;31.23;;;25.80;;
4272;SDS011;63887;53.656;9.810;2022-11-12T05:34:01;34.07;;;26.70;;
4272;SDS011;63887;53.656;9.810;2022-11-12T05:36:28;40.83;;;26.13;;
4272;SDS011;63887;53.656;9.810;2022-11-12T05:38:54;32.33;;;25.37;;
4272;SDS011;63887;53.656;9.810;2022-11-12T05:41:22;42.70;;;26.07;;
4272;SDS011;63887;53.656;9.810;2022-11-12T05:43:48;44.97;;;25.30;;
4272;SDS011;63887;53.656;9.810;2022-11-12T05:46:15;42.40;;;26.17;;
4272;SDS011;63887;53.656;9.810;2022-11-12T05:48:41;31.80;;;23.90;;
4272;SDS011;63887;53.656;9.810;2022-11-12T05:51:25;34.63;;;25.00;;
4272;SDS011;63887;53.656;9.810;2022-11-12T05:53:54;34.70;;;24.23;;
4272;SDS011;63887;53.656;9.810;2022-11-12T05:56:22;40.87;;;24.80;;
4272;SDS011;63887;53.656;9.810;2022-11-12T05:58:48;29.37;;;24.07;;
4272;SDS011;63887;53.656;9.810;2022-11-12T06:01:15;40.87;;;26.40;;
4272;SDS011;63887;53.656;9.810;2022-11-12T06:03:41;43.67;;;25.30;;
4272;SDS011;63887;53.656;9.810;2022-11-12T06:06:08;39.30;;;25.80;;
4272;SDS011;63887;53.656;9.810;2022-11-12T06:08:35;33.67;;;24.90;;
4272;SDS011;63887;53.656;9.810;2022-11-12T06:11:01;44.13;;;24.20;;
4272;SDS011;63887;53.656;9.810;2022-11-12T06:13:29;36.00;;;25.20;;
4272;SDS011;63887;53.656;9.810;2022-11-12T06:15:56;36.73;;;24.27;;
4272;SDS011;63887;53.656;9.810;2022-11-12T06:18:23;38.20;;;26.83;;
4272;SDS011;63887;53.656;9.810;2022-11-12T06:20:50;37.53;;;26.00;;
4272;SDS011;63887;53.656;9.810;2022-11-12T06:23:31;42.10;;;27.37;;
4272;SDS011;63887;53.656;9.810;2022-11-12T06:25:57;40.53;;;25.50;;
4272;SDS011;63887;53.656;9.810;2022-11-12T06:28:24;42.87;;;25.70;;
4272;SDS011;63887;53.656;9.810;2022-11-12T06:30:52;32.10;;;24.93;;
4272;SDS011;63887;53.656;9.810;2022-11-12T06:33:19;35.87;;;25.03;;
4272;SDS011;63887;53.656;9.810;2022-11-12T06:35:45;39.93;;;25.73;;
4272;SDS011;63887;53.656;9.810;2022-11-12T06:38:12;35.00;;;24.30;;
4272;SDS011;63887;53.656;9.810;2022-11-12T06:40:38;38.97;;;26.83;;
4272;SDS011;63887;53.656;9.810;2022-11-12T06:43:05;33.00;;;24.57;;
4272;SDS011;63887;53.656;9.810;2022-11-12T06:45:31;38.40;;;24.60;;
4272;SDS011;63887;53.656;9.810;2022-11-12T06:47:59;38.43;;;25.17;;
4272;SDS011;63887;53.656;9.810;2022-11-12T06:50:25;37.73;;;25.33;;
4272;SDS011;63887;53.656;9.810;2022-11-12T06:52:56;33.70;;;25.33;;
4272;SDS011;63887;53.656;9.810;2022-11-12T06:55:23;43.63;;;26.40;;
4272;SDS011;63887;53.656;9.810;2022-11-12T06:57:50;45.07;;;26.43;;
4272;SDS011;63887;53.656;9.810;2022-11-12T07:00:17;38.10;;;25.83;;
4272;SDS011;63887;53.656;9.810;2022-11-12T07:02:44;33.43;;;24.90;;
4272;SDS011;63887;53.656;9.810;2022-11-12T07:05:12;34.47;;;23.93;;
4272;SDS011;63887;53.656;9.810;2022-11-12T07:07:38;34.43;;;23.87;;
4272;SDS011;63887;53.656;9.810;2022-11-12T07:10:05;39.97;;;24.97;;
4272;SDS011;63887;53.656;9.810;2022-11-12T07:12:32;32.37;;;25.57;;
4272;SDS011;63887;53.656;9.810;2022-11-12T07:14:59;34.27;;;25.17;;
4272;SDS011;63887;53.656;9.810;2022-11-12T07:17:25;36.30;;;25.03;;
4272;SDS011;63887;53.656;9.810;2022-11-12T07:19:53;46.97;;;26.60;;
4272;SDS011;63887;53.656;9.810;2022-11-12T07:22:20;35.67;;;26.50;;
4272;SDS011;63887;53.656;9.810;2022-11-12T07:24:47;35.73;;;27.20;;
4272;SDS011;63887;53.656;9.810;2022-11-12T07:27:13;40.80;;;28.77;;
4272;SDS011;63887;53.656;9.810;2022-11-12T07:29:40;36.00;;;25.67;;
4272;SDS011;63887;53.656;9.810;2022-11-12T07:32:06;41.67;;;28.90;;
4272;SDS011;63887;53.656;9.810;2022-11-12T07:34:32;45.37;;;26.80;;
4272;SDS011;63887;53.656;9.810;2022-11-12T07:36:59;41.97;;;26.00;;
4272;SDS011;63887;53.656;9.810;2022-11-12T07:39:27;31.07;;;26.57;;
4272;SDS011;63887;53.656;9.810;2022-11-12T07:42:03;37.50;;;26.07;;
4272;SDS011;63887;53.656;9.810;2022-11-12T07:44:29;33.60;;;25.20;;
4272;SDS011;63887;53.656;9.810;2022-11-12T07:46:56;35.63;;;25.47;;
4272;SDS011;63887;53.656;9.810;2022-11-12T07:49:22;35.37;;;26.73;;
4272;SDS011;63887;53.656;9.810;2022-11-12T07:51:49;37.10;;;24.20;;
4272;SDS011;63887;53.656;9.810;2022-11-12T07:54:16;35.60;;;24.77;;
4272;SDS011;63887;53.656;9.810;2022-11-12T07:56:43;38.67;;;25.63;;
4272;SDS011;63887;53.656;9.810;2022-11-12T07:59:10;40.40;;;26.53;;
4272;SDS011;63887;53.656;9.810;2022-11-12T08:01:37;45.93;;;26.00;;
4272;SDS011;63887;53.656;9.810;2022-11-12T08:04:05;35.40;;;24.93;;
4272;SDS011;63887;53.656;9.810;2022-11-12T08:06:33;48.30;;;27.00;;
4272;SDS011;63887;53.656;9.810;2022-11-12T08:09:01;38.20;;;26.53;;
4272;SDS011;63887;53.656;9.810;2022-11-12T08:11:29;33.27;;;25.93;;
4272;SDS011;63887;53.656;9.810;2022-11-12T08:13:58;31.83;;;25.20;;
4272;SDS011;63887;53.656;9.810;2022-11-12T08:16:25;41.07;;;26.17;;
4272;SDS011;63887;53.656;9.810;2022-11-12T08:18:51;34.43;;;26.37;;
4272;SDS011;63887;53.656;9.810;2022-11-12T08:21:18;31.27;;;27.37;;
4272;SDS011;63887;53.656;9.810;2022-11-12T08:23:44;39.10;;;26.10;;
4272;SDS011;63887;53.656;9.810;2022-11-12T08:26:12;36.90;;;25.07;;
4272;SDS011;63887;53.656;9.810;2022-11-12T08:28:41;31.63;;;24.40;;
4272;SDS011;63887;53.656;9.810;2022-11-12T08:31:10;33.67;;;26.10;;
4272;SDS011;63887;53.656;9.810;2022-11-12T08:33:37;33.13;;;26.10;;
4272;SDS011;63887;53.656;9.810;2022-11-12T08:36:04;29.90;;;23.60;;
4272;SDS011;63887;53.656;9.810;2022-11-12T08:38:32;33.60;;;25.40;;
4272;SDS011;63887;53.656;9.810;2022-11-12T08:40:59;35.83;;;24.13;;
4272;SDS011;63887;53.656;9.810;2022-11-12T08:43:26;28.80;;;23.30;;
4272;SDS011;63887;53.656;9.810;2022-11-12T08:45:53;37.13;;;25.90;;
4272;SDS011;63887;53.656;9.810;2022-11-12T08:48:24;34.60;;;25.27;;
4272;SDS011;63887;53.656;9.810;2022-11-12T08:50:51;36.00;;;24.63;;
4272;SDS011;63887;53.656;9.810;2022-11-12T08:53:19;36.90;;;24.87;;
4272;SDS011;63887;53.656;9.810;2022-11-12T08:55:47;38.33;;;23.90;;
4272;SDS011;63887;53.656;9.810;2022-11-12T08:58:13;35.83;;;24.90;;
4272;SDS011;63887;53.656;9.810;2022-11-12T09:00:41;32.47;;;25.20;;
4272;SDS011;63887;53.656;9.810;2022-11-12T09:03:11;30.40;;;23.03;;
4272;SDS011;63887;53.656;9.810;2022-11-12T09:05:41;32.87;;;25.17;;
4272;SDS011;63887;53.656;9.810;2022-11-12T09:08:09;33.33;;;24.70;;
4272;SDS011;63887;53.656;9.810;2022-11-12T09:10:37;31.80;;;24.50;;
4272;SDS011;63887;53.656;9.810;2022-11-12T09:13:04;33.00;;;24.73;;
4272;SDS011;63887;53.656;9.810;2022-11-12T09:15:31;36.30;;;23.70;;
4272;SDS011;63887;53.656;9.810;2022-11-12T09:17:58;34.77;;;24.90;;
4272;SDS011;63887;53.656;9.810;2022-11-12T09:20:27;34.60;;;24.33;;
4272;SDS011;63887;53.656;9.810;2022-11-12T09:22:58;33.63;;;24.57;;
4272;SDS011;63887;53.656;9.810;2022-11-12T09:25:27;30.23;;;24.30;;
4272;SDS011;63887;53.656;9.810;2022-11-12T09:27:54;33.23;;;23.60;;
4272;SDS011;63887;53.656;9.810;2022-11-12T09:30:21;33.47;;;22.90;;
4272;SDS011;63887;53.656;9.810;2022-11-12T09:32:48;27.50;;;22.17;;
4272;SDS011;63887;53.656;9.810;2022-11-12T09:35:14;29.20;;;21.50;;
4272;SDS011;63887;53.656;9.810;2022-11-12T09:37:41;32.00;;;23.13;;
4272;SDS011;63887;53.656;9.810;2022-11-12T09:40:10;36.27;;;24.60;;
4272;SDS011;63887;53.656;9.810;2022-11-12T09:42:42;29.03;;;20.80;;
4272;SDS011;63887;53.656;9.810;2022-11-12T09:45:12;30.97;;;23.10;;
4272;SDS011;63887;53.656;9.810;2022-11-12T09:47:45;36.47;;;22.90;;
4272;SDS011;63887;53.656;9.810;2022-11-12T09:50:17;33.23;;;22.53;;
4272;SDS011;63887;53.656;9.810;2022-11-12T09:52:48;34.47;;;22.77;;
4272;SDS011;63887;53.656;9.810;2022-11-12T09:55:29;29.40;;;23.00;;
4272;SDS011;63887;53.656;9.810;2022-11-12T09:57:59;38.77;;;24.27;;
4272;SDS011;63887;53.656;9.810;2022-11-12T10:00:26;27.37;;;21.37;;
4272;SDS011;63887;53.656;9.810;2022-11-12T10:02:54;32.07;;;22.43;;
4272;SDS011;63887;53.656;9.810;2022-11-12T10:05:27;34.87;;;22.70;;
4272;SDS011;63887;53.656;9.810;2022-11-12T10:08:01;30.60;;;22.53;;
4272;SDS011;63887;53.656;9.810;2022-11-12T10:10:43;26.20;;;20.80;;
4272;SDS011;63887;53.656;9.810;2022-11-12T10:13:16;26.07;;;22.53;;
4272;SDS011;63887;53.656;9.810;2022-11-12T10:15:57;30.57;;;21.40;;
4272;SDS011;63887;53.656;9.810;2022-11-12T10:18:56;27.90;;;20.33;;
4272;SDS011;63887;53.656;9.810;2022-11-12T10:21:43;31.57;;;21.80;;
4272;SDS011;63887;53.656;9.810;2022-11-12T10:24:24;30.97;;;22.00;;
4272;SDS011;63887;53.656;9.810;2022-11-12T10:26:56;29.90;;;22.73;;
4272;SDS011;63887;53.656;9.810;2022-11-12T10:29:26;28.07;;;21.17;;
4272;SDS011;63887;53.656;9.810;2022-11-12T10:31:59;29.80;;;22.53;;
4272;SDS011;63887;53.656;9.810;2022-11-12T10:34:26;28.53;;;21.63;;
4272;SDS011;63887;53.656;9.810;2022-11-12T10:36:53;27.87;;;21.30;;
4272;SDS011;63887;53.656;9.810;2022-11-12T10:39:34;28.50;;;20.47;;
4272;SDS011;63887;53.656;9.810;2022-11-12T10:42:04;30.20;;;22.33;;
4272;SDS011;63887;53.656;9.810;2022-11-12T10:44:32;27.30;;;21.37;;
4272;SDS011;63887;53.656;9.810;2022-11-12T10:47:15;27.80;;;20.50;;
4272;SDS011;63887;53.656;9.810;2022-11-12T10:49:58;29.10;;;22.20;;
4272;SDS011;63887;53.656;9.810;2022-11-12T10:52:29;36.67;;;23.20;;
4272;SDS011;63887;53.656;9.810;2022-11-12T10:55:02;35.77;;;22.30;;
4272;SDS011;63887;53.656;9.810;2022-11-12T10:57:32;29.60;;;20.63;;
4272;SDS011;63887;53.656;9.810;2022-11-12T11:00:04;34.67;;;23.03;;
4272;SDS011;63887;53.656;9.810;2022-11-12T11:02:32;26.10;;;19.50;;
4272;SDS011;63887;53.656;9.810;2022-11-12T11:04:59;29.80;;;19.77;;
4272;SDS011;63887;53.656;9.810;2022-11-12T11:07:52;24.40;;;19.43;;
4272;SDS011;63887;53.656;9.810;2022-11-12T11:10:21;26.30;;;19.30;;
4272;SDS011;63887;53.656;9.810;2022-11-12T11:12:50;25.63;;;20.53;;
4272;SDS011;63887;53.656;9.810;2022-11-12T11:15:34;26.93;;;19.60;;
4272;SDS011;63887;53.656;9.810;2022-11-12T11:18:01;22.67;;;18.57;;
4272;SDS011;63887;53.656;9.810;2022-11-12T11:20:28;33.77;;;21.33;;
4272;SDS011;63887;53.656;9.810;2022-11-12T11:23:01;53.87;;;19.30;;
4272;SDS011;63887;53.656;9.810;2022-11-12T11:25:32;29.60;;;18.40;;
4272;SDS011;63887;53.656;9.810;2022-11-12T11:28:11;25.03;;;18.73;;
4272;SDS011;63887;53.656;9.810;2022-11-12T11:30:48;26.63;;;19.43;;
4272;SDS011;63887;53.656;9.810;2022-11-12T11:33:24;28.57;;;20.47;;
4272;SDS011;63887;53.656;9.810;2022-11-12T11:36:05;28.27;;;21.33;;
4272;SDS011;63887;53.656;9.810;2022-11-12T11:38:44;27.70;;;19.53;;
4272;SDS011;63887;53.656;9.810;2022-11-12T11:41:26;24.20;;;17.93;;
4272;SDS011;63887;53.656;9.810;2022-11-12T11:44:10;36.33;;;19.50;;
4272;SDS011;63887;53.656;9.810;2022-11-12T11:46:49;22.87;;;17.80;;
4272;SDS011;63887;53.656;9.810;2022-11-12T11:49:36;22.43;;;17.50;;
4272;SDS011;63887;53.656;9.810;2022-11-12T11:52:28;29.40;;;20.10;;
4272;SDS011;63887;53.656;9.810;2022-11-12T11:58:05;24.87;;;18.97;;
4272;SDS011;63887;53.656;9.810;2022-11-12T12:00:41;18.47;;;16.57;;
4272;SDS011;63887;53.656;9.810;2022-11-12T12:03:16;22.40;;;17.97;;
4272;SDS011;63887;53.656;9.810;2022-11-12T12:05:58;25.97;;;19.20;;
4272;SDS011;63887;53.656;9.810;2022-11-12T12:08:47;21.23;;;17.20;;
4272;SDS011;63887;53.656;9.810;2022-11-12T12:11:38;22.20;;;16.20;;
4272;SDS011;63887;53.656;9.810;2022-11-12T12:14:17;29.80;;;16.80;;
4272;SDS011;63887;53.656;9.810;2022-11-12T12:16:58;24.10;;;14.37;;
4272;SDS011;63887;53.656;9.810;2022-11-12T12:19:40;19.30;;;16.57;;
4272;SDS011;63887;53.656;9.810;2022-11-12T12:22:17;20.27;;;15.73;;
4272;SDS011;63887;53.656;9.810;2022-11-12T12:24:47;21.97;;;15.77;;
4272;SDS011;63887;53.656;9.810;2022-11-12T12:27:19;19.53;;;16.03;;
4272;SDS011;63887;53.656;9.810;2022-11-12T12:29:49;17.53;;;14.80;;
4272;SDS011;63887;53.656;9.810;2022-11-12T12:32:21;23.17;;;16.13;;
4272;SDS011;63887;53.656;9.810;2022-11-12T12:34:54;18.53;;;15.50;;
4272;SDS011;63887;53.656;9.810;2022-11-12T12:37:26;22.60;;;16.80;;
4272;SDS011;63887;53.656;9.810;2022-11-12T12:40:00;21.50;;;16.63;;
4272;SDS011;63887;53.656;9.810;2022-11-12T12:42:32;18.40;;;16.50;;
4272;SDS011;63887;53.656;9.810;2022-11-12T12:45:04;19.43;;;17.07;;
4272;SDS011;63887;53.656;9.810;2022-11-12T12:47:49;21.07;;;15.97;;
4272;SDS011;63887;53.656;9.810;2022-11-12T12:50:17;18.17;;;14.40;;
4272;SDS011;63887;53.656;9.810;2022-11-12T12:52:59;22.57;;;15.33;;
4272;SDS011;63887;53.656;9.810;2022-11-12T12:55:34;20.27;;;16.30;;
4272;SDS011;63887;53.656;9.810;2022-11-12T12:58:14;22.80;;;16.33;;
4272;SDS011;63887;53.656;9.810;2022-11-12T13:00:45;33.17;;;18.60;;
4272;SDS011;63887;53.656;9.810;2022-11-12T13:03:15;21.43;;;17.20;;
4272;SDS011;63887;53.656;9.810;2022-11-12T13:06:23;20.27;;;15.97;;
4272;SDS011;63887;53.656;9.810;2022-11-12T13:08:53;21.90;;;16.27;;
4272;SDS011;63887;53.656;9.810;2022-11-12T13:14:50;24.20;;;17.50;;
4272;SDS011;63887;53.656;9.810;2022-11-12T13:17:47;20.93;;;15.63;;
4272;SDS011;63887;53.656;9.810;2022-11-12T13:23:08;18.33;;;16.10;;
4272;SDS011;63887;53.656;9.810;2022-11-12T13:25:36;25.43;;;16.83;;
4272;SDS011;63887;53.656;9.810;2022-11-12T13:28:10;21.40;;;17.03;;
4272;SDS011;63887;53.656;9.810;2022-11-12T13:33:49;25.90;;;17.03;;
4272;SDS011;63887;53.656;9.810;2022-11-12T13:36:24;22.43;;;16.90;;
4272;SDS011;63887;53.656;9.810;2022-11-12T13:38:53;25.40;;;16.10;;
4272;SDS011;63887;53.656;9.810;2022-11-12T13:41:32;20.93;;;16.30;;
4272;SDS011;63887;53.656;9.810;2022-11-12T13:44:16;22.60;;;15.93;;
4272;SDS011;63887;53.656;9.810;2022-11-12T13:46:42;18.90;;;16.90;;
4272;SDS011;63887;53.656;9.810;2022-11-12T13:49:11;23.90;;;15.77;;
4272;SDS011;63887;53.656;9.810;2022-11-12T13:51:41;19.00;;;14.53;;
4272;SDS011;63887;53.656;9.810;2022-11-12T13:54:23;20.10;;;16.73;;
4272;SDS011;63887;53.656;9.810;2022-11-12T13:57:11;22.13;;;17.57;;
4272;SDS011;63887;53.656;9.810;2022-11-12T13:59:38;19.43;;;15.60;;
4272;SDS011;63887;53.656;9.810;2022-11-12T14:02:11;18.97;;;14.10;;
4272;SDS011;63887;53.656;9.810;2022-11-12T14:04:44;20.90;;;16.93;;
4272;SDS011;63887;53.656;9.810;2022-11-12T14:07:16;18.93;;;14.80;;
4272;SDS011;63887;53.656;9.810;2022-11-12T14:10:02;18.40;;;16.67;;
4272;SDS011;63887;53.656;9.810;2022-11-12T14:12:39;16.50;;;14.60;;
4272;SDS011;63887;53.656;9.810;2022-11-12T14:15:21;15.90;;;13.77;;
4272;SDS011;63887;53.656;9.810;2022-11-12T14:18:00;25.73;;;18.37;;
4272;SDS011;63887;53.656;9.810;2022-11-12T14:20:35;19.97;;;15.23;;
4272;SDS011;63887;53.656;9.810;2022-11-12T14:23:08;16.53;;;14.90;;
4272;SDS011;63887;53.656;9.810;2022-11-12T14:25:44;21.27;;;15.33;;
4272;SDS011;63887;53.656;9.810;2022-11-12T14:28:22;20.17;;;15.57;;
4272;SDS011;63887;53.656;9.810;2022-11-12T14:30:51;19.10;;;14.90;;
4272;SDS011;63887;53.656;9.810;2022-11-12T14:33:18;19.13;;;17.00;;
4272;SDS011;63887;53.656;9.810;2022-11-12T14:35:45;28.33;;;16.40;;
4272;SDS011;63887;53.656;9.810;2022-11-12T14:38:16;19.40;;;16.27;;
4272;SDS011;63887;53.656;9.810;2022-11-12T14:40:46;28.00;;;18.17;;
4272;SDS011;63887;53.656;9.810;2022-11-12T14:43:17;23.30;;;15.60;;
4272;SDS011;63887;53.656;9.810;2022-11-12T14:45:47;16.87;;;13.10;;
4272;SDS011;63887;53.656;9.810;2022-11-12T14:48:14;24.00;;;15.67;;
4272;SDS011;63887;53.656;9.810;2022-11-12T14:50:42;25.17;;;16.67;;
4272;SDS011;63887;53.656;9.810;2022-11-12T14:53:13;26.40;;;16.47;;
4272;SDS011;63887;53.656;9.810;2022-11-12T14:55:46;24.37;;;16.50;;
4272;SDS011;63887;53.656;9.810;2022-11-12T14:58:15;25.77;;;17.57;;
4272;SDS011;63887;53.656;9.810;2022-11-12T15:00:44;25.10;;;16.77;;
4272;SDS011;63887;53.656;9.810;2022-11-12T15:03:14;20.03;;;16.77;;
4272;SDS011;63887;53.656;9.810;2022-11-12T15:05:53;34.57;;;18.83;;
4272;SDS011;63887;53.656;9.810;2022-11-12T15:08:30;24.47;;;16.63;;